createdAt,value
2022-12-18T00:01:07.185Z,62.55
2022-12-18T00:03:34.808Z,72.47
2022-12-18T00:06:01.498Z,69.88
2022-12-18T00:08:28.943Z,58.92
2022-12-18T00:10:55.527Z,54.70
2022-12-18T00:13:26.166Z,60.30
2022-12-18T00:15:54.338Z,59.25
2022-12-18T00:18:23.159Z,58.35
2022-12-18T00:20:49.522Z,57.10
2022-12-18T00:23:15.908Z,56.78
2022-12-18T00:25:42.386Z,51.35
2022-12-18T00:28:08.791Z,57.13
2022-12-18T00:30:35.185Z,51.90
2022-12-18T00:33:01.599Z,53.90
2022-12-18T00:35:28.011Z,55.25
2022-12-18T00:37:54.399Z,59.22
2022-12-18T00:40:20.886Z,53.35
2022-12-18T00:42:59.130Z,65.57
2022-12-18T00:45:31.347Z,60.28
2022-12-18T00:47:58.397Z,51.28
2022-12-18T00:50:25.985Z,55.40
2022-12-18T00:52:53.017Z,50.78
2022-12-18T00:55:19.794Z,51.55
2022-12-18T00:57:46.193Z,52.35
2022-12-18T01:00:14.934Z,60.45
2022-12-18T01:02:42.127Z,49.65
2022-12-18T01:05:10.875Z,62.45
2022-12-18T01:07:37.583Z,53.97
2022-12-18T01:10:05.368Z,50.08
2022-12-18T01:12:32.057Z,49.45
2022-12-18T01:14:58.558Z,59.85
2022-12-18T01:17:24.997Z,63.83
2022-12-18T01:19:51.394Z,55.80
2022-12-18T01:22:17.784Z,59.15
2022-12-18T01:24:44.221Z,53.03
2022-12-18T01:27:10.765Z,52.55
2022-12-18T01:29:37.197Z,47.88
2022-12-18T01:32:03.790Z,49.58
2022-12-18T01:34:30.246Z,56.80
2022-12-18T01:36:56.703Z,50.88
2022-12-18T01:39:23.273Z,56.33
2022-12-18T01:42:04.652Z,57.63
2022-12-18T01:44:58.514Z,53.08
2022-12-18T01:47:39.375Z,50.70
2022-12-18T01:50:18.618Z,50.38
2022-12-18T01:52:48.600Z,58.60
2022-12-18T01:57:43.721Z,49.25
2022-12-18T02:00:17.399Z,57.08
2022-12-18T02:02:46.076Z,53.13
2022-12-18T02:05:15.861Z,51.67
2022-12-18T02:07:54.234Z,44.15
2022-12-18T02:10:48.088Z,45.47
2022-12-18T02:13:22.450Z,44.60
2022-12-18T02:16:30.010Z,50.00
2022-12-18T02:19:01.270Z,57.67
2022-12-18T02:22:02.359Z,51.00
2022-12-18T02:24:53.720Z,59.90
2022-12-18T02:27:20.572Z,52.90
2022-12-18T02:29:58.656Z,47.15
2022-12-18T02:32:29.006Z,46.55
2022-12-18T02:37:26.762Z,51.05
2022-12-18T02:39:55.902Z,52.15
2022-12-18T02:42:23.289Z,49.47
2022-12-18T02:44:51.904Z,56.83
2022-12-18T02:47:22.785Z,57.65
2022-12-18T02:50:23.072Z,51.55
2022-12-18T02:53:18.305Z,48.78
2022-12-18T02:55:53.772Z,49.80
2022-12-18T02:58:31.513Z,45.97
2022-12-18T03:01:16.797Z,53.28
2022-12-18T03:03:51.357Z,52.28
2022-12-18T03:06:27.903Z,49.35
2022-12-18T03:09:00.169Z,55.63
2022-12-18T03:11:48.344Z,46.55
2022-12-18T03:14:17.580Z,46.05
2022-12-18T03:16:45.725Z,41.65
2022-12-18T03:19:19.805Z,44.30
2022-12-18T03:21:50.532Z,53.45
2022-12-18T03:24:20.723Z,55.83
2022-12-18T03:26:51.952Z,56.95
2022-12-18T03:29:23.539Z,42.78
2022-12-18T03:31:55.953Z,56.60
2022-12-18T03:34:30.554Z,46.90
2022-12-18T03:36:57.240Z,44.60
2022-12-18T03:39:23.712Z,56.38
2022-12-18T03:42:02.256Z,44.47
2022-12-18T03:44:56.833Z,52.53
2022-12-18T03:47:44.973Z,46.47
2022-12-18T03:50:21.552Z,50.55
2022-12-18T03:52:54.171Z,42.88
2022-12-18T03:55:22.800Z,44.95
2022-12-18T03:57:50.352Z,48.58
2022-12-18T04:00:20.147Z,47.05
2022-12-18T04:02:53.820Z,53.45
2022-12-18T04:05:21.616Z,48.63
2022-12-18T04:07:50.538Z,53.65
2022-12-18T04:10:18.007Z,44.95
2022-12-18T04:12:44.826Z,46.03
2022-12-18T04:15:13.017Z,51.25
2022-12-18T04:17:41.143Z,52.10
2022-12-18T04:20:07.984Z,46.67
2022-12-18T04:22:34.493Z,53.30
2022-12-18T04:25:01.188Z,47.20
2022-12-18T04:27:27.745Z,53.72
2022-12-18T04:29:54.151Z,42.75
2022-12-18T04:32:20.600Z,47.28
2022-12-18T04:34:47.031Z,46.22
2022-12-18T04:37:13.581Z,41.55
2022-12-18T04:39:40.211Z,47.25
2022-12-18T04:42:06.766Z,53.30
2022-12-18T04:44:33.186Z,49.95
2022-12-18T04:46:59.684Z,41.53
2022-12-18T04:49:26.180Z,44.38
2022-12-18T04:51:53.889Z,44.92
2022-12-18T04:54:20.456Z,44.28
2022-12-18T04:56:47.683Z,42.20
2022-12-18T04:59:14.217Z,42.95
2022-12-18T05:01:40.887Z,46.20
2022-12-18T05:04:07.768Z,44.72
2022-12-18T05:06:34.178Z,51.58
2022-12-18T05:09:00.606Z,48.30
2022-12-18T05:11:27.045Z,42.95
2022-12-18T05:13:53.495Z,44.45
2022-12-18T05:16:19.993Z,46.45
2022-12-18T05:18:46.447Z,40.58
2022-12-18T05:21:13.116Z,49.30
2022-12-18T05:23:39.826Z,42.08
2022-12-18T05:26:07.576Z,44.72
2022-12-18T05:28:35.871Z,56.47
2022-12-18T05:31:04.503Z,52.90
2022-12-18T05:33:33.975Z,49.90
2022-12-18T05:36:05.840Z,48.38
2022-12-18T05:38:34.135Z,51.70
2022-12-18T05:41:00.935Z,44.30
2022-12-18T05:43:28.224Z,53.53
2022-12-18T05:45:55.410Z,47.10
2022-12-18T05:48:24.945Z,48.47
2022-12-18T05:50:52.017Z,48.10
2022-12-18T05:53:20.807Z,46.90
2022-12-18T05:55:48.030Z,45.15
2022-12-18T05:58:15.587Z,46.38
2022-12-18T06:00:44.153Z,50.28
2022-12-18T06:03:13.492Z,46.63
2022-12-18T06:05:45.052Z,45.40
2022-12-18T06:08:13.292Z,44.85
2022-12-18T06:10:40.823Z,42.67
2022-12-18T06:13:07.873Z,46.58
2022-12-18T06:15:37.350Z,51.15
2022-12-18T06:18:04.199Z,61.50
2022-12-18T06:20:33.411Z,53.28
2022-12-18T06:23:00.536Z,52.38
2022-12-18T06:25:27.129Z,48.92
2022-12-18T06:27:53.524Z,48.13
2022-12-18T06:30:20.690Z,44.92
2022-12-18T06:32:53.056Z,50.40
2022-12-18T06:35:22.809Z,46.85
2022-12-18T06:37:49.397Z,50.95
2022-12-18T06:40:15.788Z,55.17
2022-12-18T06:42:42.216Z,51.20
2022-12-18T06:45:09.163Z,50.47
2022-12-18T06:47:35.611Z,56.47
2022-12-18T06:50:02.021Z,59.85
2022-12-18T06:52:28.509Z,48.55
2022-12-18T06:54:54.949Z,48.63
2022-12-18T06:57:21.976Z,49.40
2022-12-18T06:59:48.342Z,48.08
2022-12-18T07:02:15.126Z,50.08
2022-12-18T07:04:41.814Z,52.00
2022-12-18T07:07:08.182Z,47.67
2022-12-18T07:09:34.713Z,47.50
2022-12-18T07:12:01.198Z,49.63
2022-12-18T07:14:27.822Z,54.03
2022-12-18T07:16:54.896Z,41.17
2022-12-18T07:19:21.454Z,45.47
2022-12-18T07:21:48.030Z,47.38
2022-12-18T07:24:14.443Z,44.95
2022-12-18T07:26:40.989Z,51.35
2022-12-18T07:29:07.396Z,48.83
2022-12-18T07:31:33.830Z,52.53
2022-12-18T07:34:00.384Z,42.22
2022-12-18T07:36:26.965Z,44.00
2022-12-18T07:38:53.876Z,46.42
2022-12-18T07:41:20.858Z,42.97
2022-12-18T07:43:48.090Z,43.97
2022-12-18T07:46:16.575Z,47.38
2022-12-18T07:48:44.791Z,40.85
2022-12-18T07:51:13.410Z,45.75
2022-12-18T07:53:40.740Z,44.38
2022-12-18T07:56:28.082Z,49.13
2022-12-18T07:58:55.979Z,46.03
2022-12-18T08:01:22.526Z,40.83
2022-12-18T08:03:49.047Z,44.90
2022-12-18T08:06:17.672Z,46.75
2022-12-18T08:08:44.128Z,43.75
2022-12-18T08:11:10.487Z,42.58
2022-12-18T08:13:37.284Z,51.13
2022-12-18T08:16:06.693Z,45.38
2022-12-18T08:18:34.831Z,51.47
2022-12-18T08:21:12.392Z,44.95
2022-12-18T08:23:42.545Z,45.70
2022-12-18T08:26:19.128Z,44.33
2022-12-18T08:28:46.113Z,43.15
2022-12-18T08:31:12.839Z,50.58
2022-12-18T08:33:40.596Z,45.78
2022-12-18T08:36:09.497Z,44.00
2022-12-18T08:38:35.962Z,41.50
2022-12-18T08:41:12.040Z,46.65
2022-12-18T08:43:57.700Z,40.22
2022-12-18T08:46:28.748Z,55.83
2022-12-18T08:48:56.991Z,49.10
2022-12-18T08:51:23.816Z,51.58
2022-12-18T08:53:50.403Z,65.18
2022-12-18T08:56:17.088Z,43.72
2022-12-18T08:58:43.728Z,52.72
2022-12-18T09:01:12.205Z,53.60
2022-12-18T09:03:39.700Z,47.05
2022-12-18T09:06:07.082Z,43.17
2022-12-18T09:08:37.829Z,43.78
2022-12-18T09:11:04.835Z,44.00
2022-12-18T09:13:31.328Z,51.58
2022-12-18T09:15:57.976Z,42.40
2022-12-18T09:18:25.156Z,47.08
2022-12-18T09:20:53.660Z,41.67
2022-12-18T09:23:20.876Z,45.65
2022-12-18T09:25:47.335Z,44.22
2022-12-18T09:28:15.587Z,48.67
2022-12-18T09:30:45.154Z,46.95
2022-12-18T09:33:11.973Z,43.72
2022-12-18T09:35:39.861Z,48.25
2022-12-18T09:38:06.921Z,43.65
2022-12-18T09:40:41.083Z,43.53
2022-12-18T09:43:11.854Z,47.45
2022-12-18T09:45:53.443Z,41.40
2022-12-18T09:48:29.178Z,44.13
2022-12-18T09:51:01.643Z,45.95
2022-12-18T09:53:33.557Z,41.63
2022-12-18T09:56:04.181Z,43.95
2022-12-18T09:58:46.247Z,44.05
2022-12-18T10:01:22.064Z,40.22
2022-12-18T10:03:49.036Z,42.92
2022-12-18T10:06:40.324Z,43.28
2022-12-18T10:09:22.467Z,45.40
2022-12-18T10:12:08.004Z,46.83
2022-12-18T10:14:49.407Z,48.67
2022-12-18T10:17:24.987Z,41.35
2022-12-18T10:20:02.494Z,42.78
2022-12-18T10:23:00.325Z,39.70
2022-12-18T10:25:36.228Z,43.50
2022-12-18T10:28:14.749Z,36.47
2022-12-18T10:30:43.414Z,38.25
2022-12-18T10:33:19.481Z,39.13
2022-12-18T10:35:48.011Z,34.72
2022-12-18T10:38:17.515Z,32.47
2022-12-18T10:40:57.739Z,38.10
2022-12-18T10:46:03.470Z,40.40
2022-12-18T10:48:31.442Z,34.92
2022-12-18T10:51:13.987Z,33.78
2022-12-18T10:53:43.566Z,38.22
2022-12-18T10:56:10.391Z,42.55
2022-12-18T10:58:39.631Z,38.85
2022-12-18T11:01:18.229Z,33.42
2022-12-18T11:03:47.017Z,34.90
2022-12-18T11:06:16.164Z,36.97
2022-12-18T11:08:45.673Z,33.40
2022-12-18T11:11:22.812Z,33.85
2022-12-18T11:14:05.381Z,31.10
2022-12-18T11:16:57.890Z,30.92
2022-12-18T11:19:38.077Z,30.80
2022-12-18T11:22:27.396Z,30.75
2022-12-18T11:25:30.327Z,32.20
2022-12-18T11:28:23.810Z,32.53
2022-12-18T11:30:50.239Z,31.73
2022-12-18T11:33:21.714Z,30.65
2022-12-18T11:35:55.268Z,38.30
2022-12-18T11:38:27.743Z,35.13
2022-12-18T11:41:03.159Z,28.40
2022-12-18T11:43:39.670Z,32.78
2022-12-18T11:46:20.382Z,30.13
2022-12-18T11:49:18.278Z,32.38
2022-12-18T11:51:59.780Z,32.65
2022-12-18T11:54:26.221Z,30.95
2022-12-18T11:57:35.850Z,36.47
2022-12-18T12:00:15.903Z,28.10
2022-12-18T12:03:16.621Z,36.80
2022-12-18T12:06:02.693Z,31.30
2022-12-18T12:08:52.948Z,31.10
2022-12-18T12:14:10.190Z,31.20
2022-12-18T12:16:49.897Z,34.75
2022-12-18T12:19:38.265Z,36.70
2022-12-18T12:22:18.159Z,41.47
2022-12-18T12:25:00.431Z,35.72
2022-12-18T12:27:36.593Z,36.83
2022-12-18T12:30:06.539Z,35.75
2022-12-18T12:33:06.607Z,31.52
2022-12-18T12:35:52.057Z,36.13
2022-12-18T12:38:27.416Z,32.38
2022-12-18T12:41:04.224Z,36.50
2022-12-18T12:43:47.878Z,35.05
2022-12-18T12:46:19.880Z,33.90
2022-12-18T12:48:50.049Z,36.78
2022-12-18T12:51:35.973Z,32.03
2022-12-18T12:54:05.938Z,34.80
2022-12-18T12:57:08.105Z,38.08
2022-12-18T13:00:11.266Z,31.17
2022-12-18T13:02:41.005Z,36.10
2022-12-18T13:05:20.069Z,31.60
2022-12-18T13:08:00.475Z,37.05
2022-12-18T13:10:44.226Z,33.65
2022-12-18T13:13:13.103Z,34.92
2022-12-18T13:15:40.617Z,34.80
2022-12-18T13:18:10.159Z,37.08
2022-12-18T13:20:41.099Z,39.10
2022-12-18T13:23:26.121Z,32.63
2022-12-18T13:25:59.853Z,42.13
2022-12-18T13:28:44.445Z,43.92
2022-12-18T13:31:11.117Z,39.15
2022-12-18T13:34:16.578Z,42.72
2022-12-18T13:36:32.675Z,41.17
2022-12-18T13:39:29.992Z,38.13
2022-12-18T13:42:05.660Z,45.65
2022-12-18T13:44:40.222Z,39.40
2022-12-18T13:47:34.739Z,35.75
2022-12-18T13:50:10.405Z,44.78
2022-12-18T13:52:40.299Z,40.33
2022-12-18T13:55:17.033Z,36.13
2022-12-18T13:57:43.483Z,44.45
2022-12-18T14:00:26.089Z,45.95
2022-12-18T14:02:53.222Z,42.75
2022-12-18T14:05:34.464Z,46.28
2022-12-18T14:08:12.046Z,44.90
2022-12-18T14:10:49.937Z,51.85
2022-12-18T14:13:24.158Z,50.80
2022-12-18T14:15:51.443Z,54.95
2022-12-18T14:18:32.961Z,52.65
2022-12-18T14:21:02.616Z,60.25
2022-12-18T14:23:41.939Z,66.78
2022-12-18T14:26:28.938Z,54.73
2022-12-18T14:29:02.208Z,58.58
2022-12-18T14:31:31.414Z,62.03
2022-12-18T14:33:57.909Z,64.25
2022-12-18T14:36:26.993Z,59.70
2022-12-18T14:38:55.648Z,57.33
2022-12-18T14:41:23.035Z,61.00
2022-12-18T14:43:52.769Z,58.83
2022-12-18T14:46:43.325Z,62.40
2022-12-18T14:49:35.552Z,60.08
2022-12-18T14:52:06.383Z,56.67
2022-12-18T14:54:37.940Z,58.53
2022-12-18T14:57:35.258Z,66.28
2022-12-18T15:00:06.720Z,65.38
2022-12-18T15:02:36.876Z,60.75
2022-12-18T15:07:44.421Z,59.92
2022-12-18T15:10:14.719Z,67.85
2022-12-18T15:13:06.999Z,63.15
2022-12-18T15:15:46.079Z,62.75
2022-12-18T15:18:19.152Z,69.07
2022-12-18T15:20:46.009Z,72.95
2022-12-18T15:23:23.665Z,66.68
2022-12-18T15:25:58.427Z,74.18
2022-12-18T15:28:36.232Z,67.72
2022-12-18T15:31:04.207Z,66.80
2022-12-18T15:33:33.750Z,73.63
2022-12-18T15:36:03.489Z,70.93
2022-12-18T15:38:30.496Z,76.95
2022-12-18T15:40:57.856Z,77.32
2022-12-18T15:43:34.625Z,73.53
2022-12-18T15:46:14.316Z,76.97
2022-12-18T15:48:49.142Z,67.07
2022-12-18T15:51:25.188Z,73.30
2022-12-18T15:53:55.469Z,83.60
2022-12-18T15:56:40.451Z,81.07
2022-12-18T15:59:25.109Z,68.70
2022-12-18T16:01:53.942Z,79.78
2022-12-18T16:04:22.411Z,75.15
2022-12-18T16:09:36.695Z,73.25
2022-12-18T16:12:03.279Z,63.10
2022-12-18T16:14:30.786Z,78.57
2022-12-18T16:16:59.770Z,76.65
2022-12-18T16:19:27.082Z,76.30
2022-12-18T16:21:56.092Z,73.05
2022-12-18T16:24:28.336Z,76.45
2022-12-18T16:26:56.518Z,82.47
2022-12-18T16:29:27.738Z,85.53
2022-12-18T16:31:59.436Z,77.30
2022-12-18T16:34:29.328Z,79.20
2022-12-18T16:37:06.190Z,73.93
2022-12-18T16:39:37.376Z,68.88
2022-12-18T16:42:07.250Z,63.78
2022-12-18T16:44:34.662Z,69.03
2022-12-18T16:47:03.332Z,75.75
2022-12-18T16:49:30.974Z,71.40
2022-12-18T16:51:58.036Z,65.93
2022-12-18T16:54:24.941Z,72.30
2022-12-18T16:56:52.129Z,69.00
2022-12-18T16:59:18.597Z,74.70
2022-12-18T17:01:45.209Z,74.68
2022-12-18T17:04:11.943Z,78.00
2022-12-18T17:06:44.797Z,65.47
2022-12-18T17:09:18.276Z,68.55
2022-12-18T17:11:44.719Z,64.80
2022-12-18T17:14:23.033Z,68.18
2022-12-18T17:17:07.249Z,69.38
2022-12-18T17:19:34.283Z,57.10
2022-12-18T17:22:00.780Z,70.63
2022-12-18T17:24:31.409Z,63.58
2022-12-18T17:27:00.835Z,72.65
2022-12-18T17:29:27.245Z,67.57
2022-12-18T17:31:53.695Z,70.97
2022-12-18T17:34:22.024Z,59.78
2022-12-18T17:36:48.571Z,59.38
2022-12-18T17:39:19.188Z,73.63
2022-12-18T17:41:46.106Z,59.15
2022-12-18T17:44:12.831Z,70.38
2022-12-18T17:46:39.438Z,63.42
2022-12-18T17:49:06.133Z,63.90
2022-12-18T17:51:32.580Z,62.95
2022-12-18T17:53:59.063Z,60.25
2022-12-18T17:56:26.159Z,60.22
2022-12-18T17:58:52.647Z,62.45
2022-12-18T18:01:23.257Z,61.55
2022-12-18T18:03:50.976Z,53.85
2022-12-18T18:06:20.360Z,58.33
2022-12-18T18:08:47.059Z,63.90
2022-12-18T18:11:35.685Z,64.43
2022-12-18T18:14:05.174Z,57.50
2022-12-18T18:16:35.187Z,61.40
2022-12-18T18:19:04.342Z,54.95
2022-12-18T18:21:32.082Z,55.85
2022-12-18T18:24:03.054Z,60.78
2022-12-18T18:28:59.851Z,65.00
2022-12-18T18:31:29.988Z,60.63
2022-12-18T18:33:57.174Z,63.50
2022-12-18T18:36:24.309Z,47.70
2022-12-18T18:38:51.731Z,54.65
2022-12-18T18:41:19.035Z,52.65
2022-12-18T18:43:45.756Z,52.65
2022-12-18T18:46:15.761Z,50.38
2022-12-18T18:48:43.736Z,52.70
2022-12-18T18:51:15.601Z,54.33
2022-12-18T18:53:49.839Z,49.13
2022-12-18T18:56:45.612Z,49.60
2022-12-18T18:59:05.819Z,44.43
2022-12-18T19:01:32.930Z,44.70
2022-12-18T19:04:02.574Z,45.40
2022-12-18T19:06:29.840Z,45.78
2022-12-18T19:08:57.348Z,42.97
2022-12-18T19:11:44.293Z,51.92
2022-12-18T19:14:13.326Z,45.45
2022-12-18T19:16:40.218Z,45.50
2022-12-18T19:19:08.105Z,43.92
2022-12-18T19:21:35.584Z,43.22
2022-12-18T19:24:02.839Z,43.90
2022-12-18T19:26:30.375Z,46.58
2022-12-18T19:29:23.294Z,43.60
2022-12-18T19:31:49.733Z,41.70
2022-12-18T19:34:16.168Z,40.13
2022-12-18T19:36:42.622Z,45.67
2022-12-18T19:39:14.816Z,42.20
2022-12-18T19:41:42.358Z,48.80
2022-12-18T19:44:11.837Z,44.33
2022-12-18T19:46:41.627Z,39.67
2022-12-18T19:49:11.418Z,38.80
2022-12-18T19:51:42.954Z,46.60
2022-12-18T19:54:13.349Z,48.33
2022-12-18T19:56:43.405Z,44.55
2022-12-18T19:59:10.042Z,46.05
2022-12-18T20:01:36.568Z,45.75
2022-12-18T20:04:03.374Z,47.92
2022-12-18T20:06:36.172Z,42.50
2022-12-18T20:09:06.048Z,48.67
2022-12-18T20:11:36.388Z,50.83
2022-12-18T20:14:08.446Z,48.83
2022-12-18T20:16:35.320Z,42.33
2022-12-18T20:19:02.227Z,50.80
2022-12-18T20:21:31.854Z,46.35
2022-12-18T20:23:59.880Z,44.17
2022-12-18T20:26:26.844Z,51.72
2022-12-18T20:28:54.491Z,45.42
2022-12-18T20:31:21.011Z,42.47
2022-12-18T20:33:49.840Z,50.28
2022-12-18T20:36:21.359Z,43.63
2022-12-18T20:38:51.822Z,52.50
2022-12-18T20:41:22.590Z,47.08
2022-12-18T20:43:49.026Z,51.35
2022-12-18T20:46:18.800Z,53.22
2022-12-18T20:48:48.234Z,47.42
2022-12-18T20:51:17.101Z,44.23
2022-12-18T20:53:43.911Z,48.38
2022-12-18T20:56:21.616Z,52.25
2022-12-18T20:58:49.782Z,51.95
2022-12-18T21:01:19.137Z,52.15
2022-12-18T21:03:47.075Z,51.67
2022-12-18T21:06:15.530Z,54.92
2022-12-18T21:08:42.353Z,52.15
2022-12-18T21:11:46.944Z,59.05
2022-12-18T21:14:16.571Z,45.58
2022-12-18T21:16:44.083Z,52.08
2022-12-18T21:19:19.092Z,51.95
2022-12-18T21:21:47.241Z,50.70
2022-12-18T21:24:13.623Z,54.63
2022-12-18T21:26:45.483Z,56.70
2022-12-18T21:29:15.619Z,54.55
2022-12-18T21:31:42.792Z,54.92
2022-12-18T21:34:15.569Z,53.92
2022-12-18T21:36:42.091Z,53.33
2022-12-18T21:39:08.689Z,49.40
2022-12-18T21:41:53.770Z,54.92
2022-12-18T21:44:22.287Z,54.92
2022-12-18T21:46:55.179Z,55.05
2022-12-18T21:49:24.296Z,55.10
2022-12-18T21:51:53.694Z,63.30
2022-12-18T21:54:20.914Z,50.72
2022-12-18T21:56:58.436Z,50.85
2022-12-18T21:59:26.225Z,58.17
2022-12-18T22:01:54.842Z,52.90
2022-12-18T22:04:21.747Z,57.15
2022-12-18T22:06:48.703Z,58.80
2022-12-18T22:09:17.389Z,50.78
2022-12-18T22:11:44.513Z,57.78
2022-12-18T22:14:11.913Z,55.53
2022-12-18T22:16:38.370Z,56.05
2022-12-18T22:19:06.602Z,47.00
2022-12-18T22:21:35.520Z,56.63
2022-12-18T22:24:04.445Z,55.42
2022-12-18T22:26:39.305Z,56.88
2022-12-18T22:29:25.171Z,54.08
2022-12-18T22:31:52.463Z,52.72
2022-12-18T22:34:22.840Z,50.58
2022-12-18T22:36:49.852Z,55.53
2022-12-18T22:39:22.012Z,57.05
2022-12-18T22:41:49.034Z,52.75
2022-12-18T22:44:18.078Z,52.03
2022-12-18T22:46:49.325Z,55.23
2022-12-18T22:49:24.670Z,55.95
2022-12-18T22:51:52.440Z,51.13
2022-12-18T22:54:19.112Z,53.40
2022-12-18T22:56:49.092Z,51.38
2022-12-18T22:59:17.824Z,61.50
2022-12-18T23:01:48.045Z,54.80
2022-12-18T23:04:16.194Z,58.25
2022-12-18T23:06:43.412Z,66.68
2022-12-18T23:09:19.145Z,54.17
2022-12-18T23:11:46.690Z,57.38
2022-12-18T23:14:13.500Z,57.78
2022-12-18T23:16:40.053Z,53.53
2022-12-18T23:19:06.963Z,52.33
2022-12-18T23:21:33.390Z,52.45
2022-12-18T23:24:00.689Z,61.08
2022-12-18T23:26:27.489Z,60.05
2022-12-18T23:28:56.399Z,61.42
2022-12-18T23:31:29.192Z,57.05
2022-12-18T23:33:57.516Z,60.47
2022-12-18T23:36:24.419Z,58.97
2022-12-18T23:38:52.955Z,59.17
2022-12-18T23:41:21.362Z,57.67
2022-12-18T23:43:48.005Z,54.22
2022-12-18T23:46:25.273Z,57.95
2022-12-18T23:48:52.217Z,65.05
2022-12-18T23:51:23.344Z,56.50
2022-12-18T23:53:50.277Z,55.75
2022-12-18T23:56:16.727Z,60.85
2022-12-18T23:58:43.980Z,52.58
